Terminal Aerodrome Forecast
Issued by NWS Midland/Odessa, TX

Current Version | Previous Version | Text Only | Print | Product List | Glossary On
Versions: 1 2 3 4 5 6 7 8 9 10 11 12 13 14 15 16 17 18 19 20 21 22
000
FTUS44 KMAF 231300 AAB
TAFMAF
TAF AMD
KMAF 231318Z 2313/2412 18008KT 6SM BR OVC003
      TEMPO 2313/2315 5SM BR
     FM231700 21005KT P6SM FEW250
     FM231900 20005KT P6SM SCT050 SCT250
     FM240000 18005KT P6SM SKC=

USA.gov is the U.S. government's official web portal to all federal, state and local government web resources and services.